Time;durP1;ratioP1;P1;durP2;ratioP2;P2;SDS_P1;SDS_P2;PMS_P1;PMS_P2;Temp;Humidity;BMP_temperature;BMP_pressure;BME280_temperature;BME280_humidity;BME280_pressure;Samples;Min_cycle;Max_cycle;Signal;HPM_P1;HPM_P2
2021/05/05 00:00:57;;;;;;;;;4.00;4.00;;;;;;;;3559936;39;113220;-69
2021/05/05 00:03:23;;;;;;;;;4.00;4.00;;;;;;;;3558504;39;114367;-69
2021/05/05 00:05:49;;;;;;;;;3.00;3.00;;;;;;;;3559214;39;112260;-69
2021/05/05 00:08:16;;;;;;;;;2.75;2.75;;;;;;;;3559421;39;113290;-69
2021/05/05 00:10:42;;;;;;;;;5.00;5.00;;;;;;;;3558204;39;113825;-69
2021/05/05 00:13:08;;;;;;;;;5.00;5.00;;;;;;;;3560033;39;112120;-69
2021/05/05 00:15:34;;;;;;;;;4.50;3.50;;;;;;;;3558199;39;113396;-69
2021/05/05 00:18:02;;;;;;;;;4.25;3.25;;;;;;;;3557661;39;114334;-69
2021/05/05 00:20:28;;;;;;;;;3.00;3.00;;;;;;;;3562496;39;111872;-69
2021/05/05 00:22:55;;;;;;;;;7.50;4.50;;;;;;;;3558299;39;114023;-69
2021/05/05 00:25:21;;;;;;;;;4.00;4.00;;;;;;;;3559182;39;112130;-69
2021/05/05 00:27:48;;;;;;;;;5.00;5.00;;;;;;;;3559517;39;113843;-69
2021/05/05 00:30:14;;;;;;;;;8.25;4.75;;;;;;;;3558356;39;113834;-69
2021/05/05 00:32:41;;;;;;;;;4.00;4.00;;;;;;;;3559633;39;111911;-69
2021/05/05 00:35:07;;;;;;;;;3.00;2.75;;;;;;;;3558512;39;113255;-68
2021/05/05 00:37:33;;;;;;;;;2.50;2.50;;;;;;;;3557671;39;113758;-69
2021/05/05 00:40:00;;;;;;;;;3.00;3.00;;;;;;;;3560080;39;112604;-69
2021/05/05 00:42:27;;;;;;;;;3.00;3.00;;;;;;;;3560756;39;113291;-69
2021/05/05 00:44:56;;;;;;;;;6.00;5.00;;;;;;;;3559372;39;111981;-69
2021/05/05 00:47:23;;;;;;;;;6.75;4.75;;;;;;;;3559028;39;113675;-69
2021/05/05 00:49:49;;;;;;;;;4.75;4.00;;;;;;;;3558390;39;113792;-69
2021/05/05 00:52:15;;;;;;;;;7.25;6.00;;;;;;;;3559678;39;111890;-69
2021/05/05 00:54:41;;;;;;;;;8.00;5.00;;;;;;;;3558488;39;113225;-69
2021/05/05 00:57:07;;;;;;;;;8.00;7.00;;;;;;;;3559033;39;114084;-69
2021/05/05 00:59:34;;;;;;;;;8.25;5.00;;;;;;;;3557908;39;113104;-69
2021/05/05 01:02:01;;;;;;;;;9.00;7.75;;;;;;;;3559668;39;113372;-68
2021/05/05 01:04:27;;;;;;;;;8.00;7.25;;;;;;;;3560641;39;113882;-68
2021/05/05 01:06:53;;;;;;;;;5.25;5.25;;;;;;;;3559142;39;114072;-68
2021/05/05 01:09:19;;;;;;;;;5.00;4.00;;;;;;;;3558603;39;113961;-68
2021/05/05 01:11:46;;;;;;;;;7.50;7.00;;;;;;;;3558346;39;111913;-68
2021/05/05 01:14:12;;;;;;;;;8.25;7.75;;;;;;;;3558438;39;112150;-68
2021/05/05 01:16:39;;;;;;;;;8.00;7.00;;;;;;;;3557433;39;114254;-68
2021/05/05 01:19:05;;;;;;;;;8.00;7.00;;;;;;;;3559676;39;111821;-68
2021/05/05 01:21:32;;;;;;;;;8.50;7.25;;;;;;;;3557020;39;112422;-68
2021/05/05 01:23:58;;;;;;;;;4.00;4.00;;;;;;;;3558842;39;113914;-68
2021/05/05 01:26:24;;;;;;;;;7.50;7.00;;;;;;;;3560966;39;112525;-69
2021/05/05 01:28:50;;;;;;;;;5.25;5.25;;;;;;;;3558359;39;113814;-68
2021/05/05 01:31:17;;;;;;;;;11.75;8.00;;;;;;;;3558744;39;112194;-68
2021/05/05 01:33:43;;;;;;;;;4.00;4.00;;;;;;;;3558044;39;113518;-68
2021/05/05 01:36:11;;;;;;;;;9.00;6.50;;;;;;;;3559032;39;113869;-68
2021/05/05 01:38:38;;;;;;;;;5.25;5.25;;;;;;;;3557494;39;112465;-68
2021/05/05 01:41:04;;;;;;;;;4.00;4.00;;;;;;;;3559421;39;113401;-68
2021/05/05 01:43:31;;;;;;;;;4.00;4.00;;;;;;;;3556962;39;114232;-68
2021/05/05 01:45:57;;;;;;;;;5.25;5.25;;;;;;;;3561881;39;112075;-69
2021/05/05 01:48:23;;;;;;;;;6.00;6.00;;;;;;;;3557775;39;113930;-68
2021/05/05 01:50:49;;;;;;;;;4.00;4.00;;;;;;;;3558563;39;111884;-68
2021/05/05 01:53:16;;;;;;;;;5.50;5.50;;;;;;;;3558799;39;113409;-69
2021/05/05 01:55:43;;;;;;;;;5.25;5.25;;;;;;;;3557543;39;113849;-68
2021/05/05 01:58:10;;;;;;;;;5.50;5.50;;;;;;;;3559118;39;111759;-69
2021/05/05 02:00:36;;;;;;;;;7.00;5.25;;;;;;;;3557293;39;113284;-68
2021/05/05 02:03:05;;;;;;;;;7.00;4.75;;;;;;;;3557055;39;114556;-68
2021/05/05 02:05:31;;;;;;;;;3.00;3.00;;;;;;;;3559148;39;111879;-68
2021/05/05 02:07:57;;;;;;;;;5.00;5.00;;;;;;;;3560830;39;113328;-68
2021/05/05 02:10:23;;;;;;;;;4.00;4.00;;;;;;;;3560057;39;111895;-69
2021/05/05 02:12:50;;;;;;;;;4.00;3.00;;;;;;;;3559702;39;113032;-68
2021/05/05 02:15:19;;;;;;;;;6.00;6.00;;;;;;;;3559067;39;114116;-68
2021/05/05 02:17:45;;;;;;;;;5.25;5.25;;;;;;;;3556546;39;112210;-68
2021/05/05 02:20:12;;;;;;;;;7.75;4.00;;;;;;;;3559365;39;113563;-68
2021/05/05 02:22:39;;;;;;;;;6.50;4.75;;;;;;;;3559722;39;113384;-68
2021/05/05 02:25:06;;;;;;;;;7.00;3.75;;;;;;;;3558814;39;112224;-68
2021/05/05 02:27:32;;;;;;;;;3.00;3.00;;;;;;;;3558747;39;113192;-68
2021/05/05 02:29:59;;;;;;;;;7.00;4.25;;;;;;;;3560565;39;112848;-68
2021/05/05 02:32:26;;;;;;;;;3.00;2.50;;;;;;;;3559398;39;113052;-68
2021/05/05 02:34:53;;;;;;;;;8.25;6.00;;;;;;;;3558526;39;114708;-69
2021/05/05 02:37:19;;;;;;;;;6.00;6.00;;;;;;;;3560010;39;111997;-68
2021/05/05 02:39:45;;;;;;;;;6.75;5.00;;;;;;;;3559767;39;113681;-67
2021/05/05 02:42:13;;;;;;;;;5.00;5.00;;;;;;;;3559450;39;114288;-68
2021/05/05 02:44:40;;;;;;;;;6.75;5.00;;;;;;;;3558948;39;112041;-68
2021/05/05 02:47:07;;;;;;;;;5.25;5.25;;;;;;;;3559427;39;112929;-67
2021/05/05 02:49:33;;;;;;;;;8.00;8.00;;;;;;;;3558074;39;114532;-68
2021/05/05 02:52:00;;;;;;;;;6.00;5.75;;;;;;;;3563485;39;112023;-69
2021/05/05 02:54:26;;;;;;;;;4.50;4.00;;;;;;;;3558603;39;113803;-68
2021/05/05 02:56:52;;;;;;;;;8.25;6.75;;;;;;;;3559851;39;112118;-70
2021/05/05 02:59:18;;;;;;;;;4.00;4.00;;;;;;;;3559706;39;114280;-68
2021/05/05 03:01:44;;;;;;;;;7.00;4.50;;;;;;;;3558653;39;114083;-69
2021/05/05 03:04:11;;;;;;;;;5.75;5.75;;;;;;;;3560163;39;111895;-69
2021/05/05 03:06:37;;;;;;;;;6.50;6.25;;;;;;;;3558638;39;113257;-69
2021/05/05 03:09:04;;;;;;;;;6.50;4.00;;;;;;;;3560176;39;113880;-69
2021/05/05 03:11:30;;;;;;;;;3.75;3.75;;;;;;;;3558474;39;112015;-67
2021/05/05 03:13:56;;;;;;;;;6.25;3.25;;;;;;;;3562275;39;113825;-68
2021/05/05 03:16:23;;;;;;;;;7.25;6.50;;;;;;;;3557468;39;112254;-68
2021/05/05 03:18:49;;;;;;;;;7.00;6.00;;;;;;;;3559465;39;113381;-68
2021/05/05 03:21:16;;;;;;;;;4.00;3.75;;;;;;;;3559364;39;115213;-68
2021/05/05 03:23:42;;;;;;;;;4.00;4.00;;;;;;;;3558054;39;112000;-68
2021/05/05 03:26:08;;;;;;;;;8.00;6.00;;;;;;;;3560343;39;113385;-68
2021/05/05 03:28:34;;;;;;;;;6.00;6.00;;;;;;;;3558048;39;113937;-69
2021/05/05 03:31:00;;;;;;;;;4.00;4.00;;;;;;;;3560103;39;111909;-68
2021/05/05 03:33:26;;;;;;;;;7.00;4.75;;;;;;;;3556710;39;112482;-68
2021/05/05 03:35:52;;;;;;;;;4.00;4.00;;;;;;;;3560217;39;112832;-68
2021/05/05 03:38:19;;;;;;;;;3.00;3.00;;;;;;;;3559377;39;113120;-69
2021/05/05 03:40:45;;;;;;;;;5.25;4.00;;;;;;;;3558731;39;114035;-67
2021/05/05 03:43:12;;;;;;;;;6.75;6.75;;;;;;;;3559802;39;111971;-68
2021/05/05 03:45:38;;;;;;;;;6.00;6.00;;;;;;;;3558535;39;113972;-68
2021/05/05 03:48:05;;;;;;;;;5.25;4.50;;;;;;;;3559838;39;113941;-68
2021/05/05 03:50:32;;;;;;;;;7.00;6.00;;;;;;;;3558275;39;112213;-69
2021/05/05 03:52:58;;;;;;;;;7.50;6.00;;;;;;;;3560101;39;113359;-68
2021/05/05 03:55:25;;;;;;;;;5.75;5.75;;;;;;;;3561000;39;113941;-69
2021/05/05 03:57:51;;;;;;;;;6.25;6.00;;;;;;;;3559788;39;113503;-68
2021/05/05 04:00:17;;;;;;;;;8.00;7.00;;;;;;;;3559707;39;113691;-68
2021/05/05 04:02:43;;;;;;;;;6.00;6.00;;;;;;;;3559514;39;112081;-68
2021/05/05 04:05:10;;;;;;;;;6.00;4.50;;;;;;;;3558987;39;113679;-71
2021/05/05 04:07:36;;;;;;;;;3.50;3.50;;;;;;;;3559461;39;113796;-69
2021/05/05 04:10:03;;;;;;;;;8.00;3.50;;;;;;;;3558679;39;111778;-68
2021/05/05 04:12:30;;;;;;;;;9.00;6.75;;;;;;;;3561033;39;114055;-68
2021/05/05 04:14:56;;;;;;;;;6.00;5.50;;;;;;;;3562840;39;113923;-67
2021/05/05 04:17:22;;;;;;;;;6.75;6.25;;;;;;;;3562603;39;112041;-67
2021/05/05 04:19:48;;;;;;;;;3.50;3.50;;;;;;;;3560077;39;113645;-68
2021/05/05 04:22:15;;;;;;;;;7.00;3.50;;;;;;;;3560387;39;114317;-68
2021/05/05 04:24:41;;;;;;;;;7.00;5.25;;;;;;;;3557889;39;112188;-68
2021/05/05 04:27:07;;;;;;;;;5.25;5.25;;;;;;;;3558580;39;113351;-68
2021/05/05 04:29:34;;;;;;;;;3.75;3.75;;;;;;;;3558998;39;111993;-68
2021/05/05 04:32:00;;;;;;;;;4.00;4.00;;;;;;;;3558092;39;113245;-68
2021/05/05 04:34:26;;;;;;;;;7.00;4.00;;;;;;;;3559084;39;113913;-67
2021/05/05 04:36:53;;;;;;;;;7.00;4.00;;;;;;;;3558730;39;112072;-67
2021/05/05 04:39:20;;;;;;;;;11.00;7.25;;;;;;;;3561524;39;113563;-67
2021/05/05 04:41:46;;;;;;;;;4.00;4.00;;;;;;;;3558946;39;112142;-67
2021/05/05 04:44:12;;;;;;;;;3.00;3.00;;;;;;;;3558753;39;113278;-68
2021/05/05 04:46:39;;;;;;;;;4.00;4.00;;;;;;;;3559076;39;113863;-67
2021/05/05 04:49:05;;;;;;;;;5.75;5.75;;;;;;;;3556425;39;112158;-67
2021/05/05 04:51:31;;;;;;;;;7.00;7.00;;;;;;;;3559927;39;113534;-69
2021/05/05 04:53:57;;;;;;;;;4.75;3.00;;;;;;;;3557738;39;114370;-67
2021/05/05 04:56:23;;;;;;;;;6.25;6.25;;;;;;;;3559429;39;111833;-67
2021/05/05 04:58:49;;;;;;;;;7.75;6.75;;;;;;;;3559746;39;113431;-66
2021/05/05 05:01:16;;;;;;;;;6.25;6.00;;;;;;;;3561186;39;113896;-67
2021/05/05 05:03:43;;;;;;;;;4.50;4.50;;;;;;;;3556512;39;112915;-67
2021/05/05 05:06:09;;;;;;;;;7.50;7.50;;;;;;;;3558993;39;113900;-67
2021/05/05 05:08:35;;;;;;;;;6.25;6.25;;;;;;;;3557929;39;111969;-67
2021/05/05 05:11:01;;;;;;;;;6.50;6.50;;;;;;;;3559952;39;113485;-68
2021/05/05 05:13:27;;;;;;;;;6.00;6.00;;;;;;;;3559287;39;113841;-67
2021/05/05 05:15:53;;;;;;;;;8.25;6.00;;;;;;;;3558275;39;113413;-68
2021/05/05 05:18:20;;;;;;;;;8.50;7.75;;;;;;;;3559136;39;113335;-67
2021/05/05 05:20:47;;;;;;;;;6.00;6.00;;;;;;;;3558181;39;114765;-69
2021/05/05 05:23:13;;;;;;;;;6.00;6.00;;;;;;;;3561329;39;111850;-68
2021/05/05 05:25:39;;;;;;;;;4.00;4.00;;;;;;;;3557593;39;112937;-67
2021/05/05 05:28:05;;;;;;;;;9.00;7.50;;;;;;;;3559477;39;112861;-68
2021/05/05 05:30:32;;;;;;;;;8.00;8.00;;;;;;;;3557727;39;113517;-67
2021/05/05 05:32:58;;;;;;;;;11.00;8.00;;;;;;;;3559796;39;114178;-67
2021/05/05 05:35:24;;;;;;;;;8.75;7.00;;;;;;;;3559461;39;113316;-68
2021/05/05 05:37:51;;;;;;;;;9.50;9.00;;;;;;;;3558495;39;113223;-69
2021/05/05 05:40:17;;;;;;;;;9.25;8.25;;;;;;;;3559444;39;114021;-68
2021/05/05 05:42:44;;;;;;;;;11.00;8.00;;;;;;;;3558598;39;112386;-68
2021/05/05 05:45:11;;;;;;;;;2.75;2.75;;;;;;;;3562598;39;113428;-68
2021/05/05 05:47:38;;;;;;;;;12.25;9.75;;;;;;;;3559106;39;111733;-69
2021/05/05 05:50:04;;;;;;;;;9.25;9.25;;;;;;;;3560806;39;113531;-69
2021/05/05 05:52:30;;;;;;;;;6.75;6.75;;;;;;;;3559628;39;112681;-68
2021/05/05 05:54:57;;;;;;;;;8.50;7.25;;;;;;;;3560572;39;112108;-68
2021/05/05 05:57:23;;;;;;;;;7.00;6.50;;;;;;;;3559396;39;113458;-68
2021/05/05 05:59:50;;;;;;;;;8.00;7.00;;;;;;;;3558601;39;113363;-69
2021/05/05 06:02:17;;;;;;;;;9.75;7.75;;;;;;;;3559656;39;111976;-69
2021/05/05 06:04:43;;;;;;;;;8.00;7.50;;;;;;;;3561592;39;113367;-70
2021/05/05 06:07:09;;;;;;;;;7.00;5.25;;;;;;;;3560113;39;112084;-71
2021/05/05 06:09:35;;;;;;;;;8.75;8.75;;;;;;;;3558989;39;113335;-70
2021/05/05 06:12:02;;;;;;;;;9.00;9.00;;;;;;;;3560124;39;114134;-70
2021/05/05 06:14:28;;;;;;;;;7.50;5.00;;;;;;;;3558723;39;112055;-68
2021/05/05 06:16:54;;;;;;;;;10.00;10.00;;;;;;;;3561091;39;113324;-69
2021/05/05 06:19:20;;;;;;;;;7.75;7.00;;;;;;;;3558869;39;114262;-68
2021/05/05 06:21:46;;;;;;;;;9.75;8.75;;;;;;;;3559630;39;111819;-69
2021/05/05 06:24:12;;;;;;;;;10.25;10.25;;;;;;;;3557930;39;112767;-69
2021/05/05 06:26:39;;;;;;;;;8.50;8.50;;;;;;;;3560428;39;113750;-69
2021/05/05 06:29:06;;;;;;;;;10.00;9.00;;;;;;;;3559766;39;113129;-69
2021/05/05 06:31:32;;;;;;;;;9.00;9.00;;;;;;;;3557594;39;114069;-68
2021/05/05 06:33:58;;;;;;;;;10.75;10.75;;;;;;;;3559866;39;112422;-70
2021/05/05 06:36:24;;;;;;;;;8.75;8.75;;;;;;;;3558561;39;114075;-69
2021/05/05 06:38:50;;;;;;;;;12.50;9.00;;;;;;;;3558944;39;113833;-69
2021/05/05 06:41:16;;;;;;;;;10.25;10.25;;;;;;;;3559049;39;111869;-68
2021/05/05 06:43:42;;;;;;;;;9.75;9.00;;;;;;;;3558289;39;113392;-68
2021/05/05 06:46:09;;;;;;;;;14.25;11.50;;;;;;;;3559564;39;113870;-68
2021/05/05 06:48:37;;;;;;;;;14.50;10.75;;;;;;;;3556156;39;112961;-67
2021/05/05 06:51:03;;;;;;;;;9.00;9.00;;;;;;;;3557456;39;114123;-70
2021/05/05 06:53:29;;;;;;;;;7.00;7.00;;;;;;;;3557948;39;111887;-69
2021/05/05 06:55:55;;;;;;;;;5.00;5.00;;;;;;;;3559830;39;114001;-68
2021/05/05 06:58:21;;;;;;;;;10.00;6.50;;;;;;;;3560236;39;113903;-68
2021/05/05 07:00:48;;;;;;;;;8.00;7.00;;;;;;;;3557919;39;112157;-67
2021/05/05 07:03:14;;;;;;;;;8.75;7.00;;;;;;;;3559885;39;113148;-68
2021/05/05 07:05:41;;;;;;;;;4.00;4.00;;;;;;;;3560157;39;114220;-67
2021/05/05 07:08:07;;;;;;;;;6.50;6.50;;;;;;;;3559910;39;111983;-67
2021/05/05 07:10:33;;;;;;;;;5.50;5.00;;;;;;;;3559869;39;114079;-67
2021/05/05 07:12:59;;;;;;;;;4.50;4.50;;;;;;;;3560063;39;112299;-66
2021/05/05 07:15:25;;;;;;;;;10.25;8.75;;;;;;;;3558650;39;113269;-68
2021/05/05 07:17:52;;;;;;;;;3.25;3.25;;;;;;;;3554919;39;113516;-67
2021/05/05 07:20:19;;;;;;;;;3.25;3.25;;;;;;;;3556056;39;112262;-69
2021/05/05 07:22:45;;;;;;;;;5.75;4.00;;;;;;;;3557589;39;113903;-67
2021/05/05 07:25:11;;;;;;;;;4.50;4.25;;;;;;;;3558975;39;114175;-70
2021/05/05 07:27:38;;;;;;;;;4.25;3.25;;;;;;;;3558019;39;111763;-68
2021/05/05 07:30:04;;;;;;;;;3.00;3.00;;;;;;;;3560106;39;116605;-68
2021/05/05 07:32:30;;;;;;;;;4.00;4.00;;;;;;;;3560056;39;113847;-68
2021/05/05 07:34:57;;;;;;;;;4.00;3.00;;;;;;;;3559580;39;113326;-68
2021/05/05 07:37:33;;;;;;;;;4.00;4.00;;;;;;;;3557645;39;113784;-67
2021/05/05 07:40:34;;;;;;;;;0.00;0.00;;;;;;;;3559750;39;112125;-68
2021/05/05 07:45:57;;;;;;;;;3.00;3.00;;;;;;;;3539310;39;113761;-71
2021/05/05 07:48:27;;;;;;;;;3.50;3.50;;;;;;;;3556048;39;113158;-72
2021/05/05 07:50:54;;;;;;;;;2.00;2.00;;;;;;;;3559622;39;113342;-73
2021/05/05 07:53:21;;;;;;;;;3.25;3.25;;;;;;;;3556854;39;114070;-73
2021/05/05 07:55:47;;;;;;;;;6.75;4.00;;;;;;;;3563663;39;111728;-73
2021/05/05 07:58:13;;;;;;;;;10.00;7.75;;;;;;;;3560318;39;113906;-73
2021/05/05 08:00:39;;;;;;;;;4.00;4.00;;;;;;;;3558322;39;112135;-73
2021/05/05 08:03:06;;;;;;;;;4.75;4.75;;;;;;;;3556019;39;113773;-75
2021/05/05 08:05:32;;;;;;;;;7.00;6.50;;;;;;;;3556946;39;114037;-76
2021/05/05 08:07:58;;;;;;;;;4.50;4.50;;;;;;;;3521729;39;112264;-78
2021/05/05 08:10:25;;;;;;;;;4.00;3.00;;;;;;;;3536102;39;113542;-76
2021/05/05 08:12:52;;;;;;;;;3.50;3.00;;;;;;;;3538322;39;113778;-76
2021/05/05 08:15:18;;;;;;;;;5.50;4.50;;;;;;;;3540174;39;111945;-75
2021/05/05 08:17:44;;;;;;;;;8.75;7.75;;;;;;;;3536975;39;113852;-74
2021/05/05 08:20:11;;;;;;;;;4.75;3.50;;;;;;;;3537493;39;112172;-72
2021/05/05 08:22:37;;;;;;;;;3.50;3.50;;;;;;;;3538860;39;112887;-75
2021/05/05 08:25:03;;;;;;;;;4.25;4.00;;;;;;;;3537181;39;113965;-72
2021/05/05 08:27:30;;;;;;;;;8.75;7.50;;;;;;;;3537156;39;111970;-70
2021/05/05 08:29:57;;;;;;;;;4.25;3.00;;;;;;;;3538975;39;113915;-73
2021/05/05 08:32:25;;;;;;;;;4.00;4.00;;;;;;;;3537682;39;113859;-71
2021/05/05 08:34:51;;;;;;;;;10.50;8.25;;;;;;;;3538818;39;111810;-75
2021/05/05 08:37:18;;;;;;;;;4.00;4.00;;;;;;;;3540470;39;113289;-75
2021/05/05 08:39:44;;;;;;;;;25.75;25.00;;;;;;;;3537762;39;112268;-72
2021/05/05 08:42:12;;;;;;;;;2.25;2.25;;;;;;;;3538781;39;113748;-74
2021/05/05 08:44:40;;;;;;;;;5.25;5.25;;;;;;;;3536881;39;114276;-71
2021/05/05 08:47:07;;;;;;;;;6.00;5.25;;;;;;;;3538821;39;111804;-69
2021/05/05 08:49:33;;;;;;;;;18.75;14.50;;;;;;;;3537166;39;113635;-71
2021/05/05 08:51:59;;;;;;;;;6.75;5.25;;;;;;;;3537354;39;114293;-70
2021/05/05 08:54:26;;;;;;;;;4.00;4.00;;;;;;;;3537939;39;112460;-70
2021/05/05 08:56:52;;;;;;;;;11.25;10.25;;;;;;;;3536937;39;113360;-69
2021/05/05 08:59:18;;;;;;;;;16.00;11.25;;;;;;;;3537080;39;114655;-70
2021/05/05 09:01:45;;;;;;;;;7.00;7.00;;;;;;;;3535097;39;113349;-71
2021/05/05 09:04:12;;;;;;;;;7.00;6.25;;;;;;;;3534481;39;114415;-71
2021/05/05 09:06:48;;;;;;;;;5.00;4.25;;;;;;;;3535343;39;112196;-68
2021/05/05 09:09:30;;;;;;;;;5.50;4.75;;;;;;;;3535848;39;113306;-76
2021/05/05 09:11:56;;;;;;;;;6.00;5.00;;;;;;;;3535291;39;114000;-69
2021/05/05 09:14:22;;;;;;;;;7.75;6.00;;;;;;;;3535104;39;113105;-72
2021/05/05 09:16:49;;;;;;;;;6.00;6.00;;;;;;;;3536210;39;113498;-71
2021/05/05 09:19:15;;;;;;;;;7.00;6.00;;;;;;;;3534847;39;114129;-74
2021/05/05 09:21:42;;;;;;;;;6.75;6.75;;;;;;;;3543339;39;112205;-71
2021/05/05 09:24:18;;;;;;;;;4.00;4.00;;;;;;;;3536268;39;113576;-72
2021/05/05 09:26:45;;;;;;;;;5.50;5.25;;;;;;;;3533525;39;111900;-72
2021/05/05 09:29:11;;;;;;;;;8.50;7.75;;;;;;;;3536768;39;113288;-73
2021/05/05 09:31:38;;;;;;;;;4.00;4.00;;;;;;;;3537719;39;114498;-73
2021/05/05 09:34:07;;;;;;;;;3.00;3.00;;;;;;;;3536380;39;112521;-74
2021/05/05 09:36:33;;;;;;;;;3.75;3.25;;;;;;;;3536215;39;113476;-73
2021/05/05 09:39:02;;;;;;;;;6.00;4.75;;;;;;;;3534491;39;113654;-73
2021/05/05 09:41:29;;;;;;;;;4.50;4.00;;;;;;;;3535010;39;113237;-74
2021/05/05 09:43:58;;;;;;;;;6.00;4.00;;;;;;;;3538074;39;113382;-71
2021/05/05 09:46:31;;;;;;;;;4.25;4.25;;;;;;;;3534948;39;112001;-70
2021/05/05 09:49:12;;;;;;;;;5.00;4.00;;;;;;;;3537753;39;114063;-71
2021/05/05 09:51:45;;;;;;;;;7.25;7.25;;;;;;;;3535207;39;113954;-70
2021/05/05 09:54:20;;;;;;;;;7.50;7.50;;;;;;;;3536914;39;112299;-70
2021/05/05 09:56:46;;;;;;;;;9.00;7.00;;;;;;;;3538071;39;113364;-71
2021/05/05 09:59:12;;;;;;;;;7.25;7.00;;;;;;;;3536224;39;114217;-72
2021/05/05 10:01:38;;;;;;;;;4.00;4.00;;;;;;;;3535231;39;112244;-72
2021/05/05 10:04:04;;;;;;;;;4.00;4.00;;;;;;;;3534426;39;113516;-72
2021/05/05 10:06:31;;;;;;;;;5.00;5.00;;;;;;;;3540284;39;112195;-73
2021/05/05 10:08:59;;;;;;;;;12.75;9.75;;;;;;;;3536739;39;113349;-73
2021/05/05 10:11:26;;;;;;;;;10.75;10.75;;;;;;;;3537547;39;113952;-72
2021/05/05 10:13:54;;;;;;;;;12.00;7.00;;;;;;;;3536692;39;111992;-72
2021/05/05 10:16:21;;;;;;;;;11.50;9.50;;;;;;;;3534861;39;112526;-71
2021/05/05 10:18:48;;;;;;;;;6.50;6.00;;;;;;;;3536754;39;113846;-72
2021/05/05 10:21:14;;;;;;;;;6.50;5.00;;;;;;;;3537459;39;112048;-72
2021/05/05 10:23:41;;;;;;;;;5.00;5.00;;;;;;;;3537348;39;113641;-72
2021/05/05 10:26:08;;;;;;;;;7.00;7.00;;;;;;;;3538797;39;113789;-73
2021/05/05 10:28:34;;;;;;;;;6.00;4.25;;;;;;;;3536557;39;113390;-73
2021/05/05 10:31:01;;;;;;;;;4.75;4.75;;;;;;;;3539549;39;113839;-72
2021/05/05 10:33:28;;;;;;;;;7.00;5.25;;;;;;;;3538244;39;113049;-72
2021/05/05 10:35:55;;;;;;;;;6.75;6.75;;;;;;;;3539154;39;113342;-79
2021/05/05 10:38:33;;;;;;;;;6.00;6.00;;;;;;;;3536146;39;113376;-70
2021/05/05 10:41:05;;;;;;;;;7.75;7.00;;;;;;;;3539229;39;113763;-69
2021/05/05 10:43:45;;;;;;;;;13.50;10.00;;;;;;;;3535681;39;113485;-70
2021/05/05 10:46:26;;;;;;;;;7.00;7.00;;;;;;;;3535180;39;114002;-69
2021/05/05 10:49:07;;;;;;;;;9.50;8.50;;;;;;;;3539375;39;112062;-68
2021/05/05 10:52:06;;;;;;;;;8.00;7.00;;;;;;;;3536647;39;113277;-68
2021/05/05 10:54:50;;;;;;;;;9.00;7.75;;;;;;;;3499584;40;112005;-68
2021/05/05 10:57:17;;;;;;;;;10.50;9.25;;;;;;;;3498182;40;114128;-68
2021/05/05 11:00:02;;;;;;;;;11.25;7.50;;;;;;;;3521872;39;113957;-68
2021/05/05 11:02:51;;;;;;;;;9.75;9.50;;;;;;;;3535659;39;112916;-68
2021/05/05 11:05:18;;;;;;;;;9.25;9.25;;;;;;;;3539184;39;113353;-70
2021/05/05 11:07:48;;;;;;;;;9.25;8.50;;;;;;;;3537452;39;113827;-70
2021/05/05 11:10:29;;;;;;;;;11.00;8.25;;;;;;;;3538410;39;112375;-69
2021/05/05 11:12:55;;;;;;;;;9.25;8.75;;;;;;;;3540481;39;113484;-69
2021/05/05 11:15:41;;;;;;;;;12.00;8.00;;;;;;;;3538266;39;113242;-69
2021/05/05 11:18:22;;;;;;;;;12.25;11.00;;;;;;;;3536688;39;113243;-73
2021/05/05 11:20:48;;;;;;;;;3.00;3.00;;;;;;;;3537470;39;113235;-73
2021/05/05 11:23:29;;;;;;;;;10.50;10.50;;;;;;;;3536987;39;111896;-72
2021/05/05 11:26:10;;;;;;;;;9.00;9.00;;;;;;;;3537643;39;113755;-72
2021/05/05 11:28:49;;;;;;;;;6.00;6.00;;;;;;;;3536472;39;114008;-71
2021/05/05 11:31:15;;;;;;;;;6.00;4.75;;;;;;;;3535879;39;112301;-71
2021/05/05 11:33:54;;;;;;;;;9.25;6.25;;;;;;;;3537141;39;113228;-69
2021/05/05 11:36:21;;;;;;;;;7.00;6.00;;;;;;;;3538932;39;113822;-71
2021/05/05 11:38:47;;;;;;;;;7.00;7.00;;;;;;;;3538019;39;113398;-71
2021/05/05 11:41:13;;;;;;;;;11.50;7.75;;;;;;;;3536468;39;114238;-71
2021/05/05 11:43:43;;;;;;;;;9.75;8.00;;;;;;;;3538210;39;111796;-71
2021/05/05 11:46:09;;;;;;;;;8.00;8.00;;;;;;;;3537119;39;113699;-70
2021/05/05 11:48:39;;;;;;;;;12.00;10.75;;;;;;;;3538800;39;113664;-72
2021/05/05 11:51:15;;;;;;;;;3.00;2.25;;;;;;;;3539032;39;112141;-71
2021/05/05 11:53:42;;;;;;;;;8.50;7.00;;;;;;;;3535459;39;112322;-69
2021/05/05 11:56:15;;;;;;;;;7.00;5.00;;;;;;;;3536773;39;113898;-71
2021/05/05 11:58:42;;;;;;;;;8.00;6.00;;;;;;;;3541352;39;112383;-70
2021/05/05 12:01:08;;;;;;;;;9.50;9.50;;;;;;;;3536830;39;113857;-70
2021/05/05 12:03:34;;;;;;;;;12.00;9.50;;;;;;;;3537444;39;112552;-72
2021/05/05 12:06:00;;;;;;;;;5.50;3.00;;;;;;;;3537276;39;113364;-68
2021/05/05 12:08:27;;;;;;;;;2.50;2.50;;;;;;;;3537764;39;114511;-68
2021/05/05 12:10:55;;;;;;;;;3.00;3.00;;;;;;;;3537732;39;111824;-68
2021/05/05 12:13:22;;;;;;;;;3.50;3.00;;;;;;;;3538011;39;113457;-69
2021/05/05 12:15:57;;;;;;;;;6.25;5.00;;;;;;;;3535975;39;114103;-68
2021/05/05 12:18:28;;;;;;;;;8.50;3.00;;;;;;;;3540922;39;112561;-68
2021/05/05 12:21:00;;;;;;;;;3.25;2.75;;;;;;;;3537763;39;114002;-69
2021/05/05 12:23:34;;;;;;;;;3.00;3.00;;;;;;;;3532617;39;113187;-71
2021/05/05 12:26:10;;;;;;;;;2.50;2.50;;;;;;;;3537070;39;113239;-69
2021/05/05 12:28:37;;;;;;;;;4.00;4.00;;;;;;;;3536753;39;113808;-71
2021/05/05 12:31:03;;;;;;;;;2.00;1.00;;;;;;;;3538450;39;112005;-70
2021/05/05 12:33:33;;;;;;;;;4.50;1.75;;;;;;;;3536820;39;112921;-69
2021/05/05 12:36:00;;;;;;;;;1.00;1.00;;;;;;;;3538149;39;114237;-70
2021/05/05 12:38:26;;;;;;;;;3.00;1.75;;;;;;;;3533289;39;113919;-69
2021/05/05 12:41:00;;;;;;;;;3.00;1.75;;;;;;;;3540131;39;113867;-69
2021/05/05 12:43:28;;;;;;;;;1.00;1.00;;;;;;;;3533319;39;113353;-69
2021/05/05 12:45:56;;;;;;;;;1.00;1.00;;;;;;;;3535273;39;112866;-69
2021/05/05 12:48:23;;;;;;;;;1.00;1.00;;;;;;;;3536788;39;114728;-70
2021/05/05 12:50:49;;;;;;;;;1.00;1.00;;;;;;;;3536803;39;112655;-69
2021/05/05 12:53:16;;;;;;;;;1.00;1.00;;;;;;;;3534172;39;112336;-69
2021/05/05 12:55:42;;;;;;;;;2.50;2.50;;;;;;;;3534931;39;113790;-70
2021/05/05 12:58:09;;;;;;;;;7.00;4.00;;;;;;;;3536875;39;112609;-69
2021/05/05 13:00:37;;;;;;;;;3.25;2.75;;;;;;;;3540527;39;112256;-69
2021/05/05 13:03:05;;;;;;;;;5.00;4.50;;;;;;;;3536752;39;113934;-70
2021/05/05 13:05:31;;;;;;;;;4.50;4.50;;;;;;;;3538364;39;113307;-70
2021/05/05 13:08:07;;;;;;;;;3.00;3.00;;;;;;;;3536894;39;113568;-69
2021/05/05 13:10:41;;;;;;;;;5.00;4.00;;;;;;;;3534970;39;112106;-68
2021/05/05 13:13:10;;;;;;;;;3.00;3.00;;;;;;;;3536613;39;113306;-68
2021/05/05 13:15:45;;;;;;;;;4.75;4.00;;;;;;;;3537330;39;113877;-68
2021/05/05 13:29:45;;;;;;;;;5.00;5.00;;;;;;;;3520831;39;114357;-67
2021/05/05 13:32:26;;;;;;;;;4.00;4.00;;;;;;;;3534725;39;112233;-68
2021/05/05 13:34:53;;;;;;;;;5.75;4.00;;;;;;;;3537994;39;113162;-69
2021/05/05 13:37:19;;;;;;;;;5.25;4.00;;;;;;;;3536220;39;113813;-69
2021/05/05 13:41:07;;;;;;;;;6.50;6.00;;;;;;;;3570426;39;112064;-68
2021/05/05 13:43:38;;;;;;;;;5.00;5.00;;;;;;;;3563813;39;113645;-68
2021/05/05 13:46:06;;;;;;;;;5.00;5.00;;;;;;;;3567909;39;112068;-69
2021/05/05 13:48:44;;;;;;;;;3.25;3.00;;;;;;;;3568542;39;112257;-69
2021/05/05 13:51:11;;;;;;;;;2.50;2.50;;;;;;;;3564415;39;113984;-68
2021/05/05 13:53:38;;;;;;;;;4.75;4.75;;;;;;;;3564847;39;111912;-67
2021/05/05 13:56:04;;;;;;;;;5.25;5.25;;;;;;;;3564478;39;113246;-68
2021/05/05 13:58:31;;;;;;;;;4.00;4.00;;;;;;;;3566052;39;114492;-68
2021/05/05 14:00:58;;;;;;;;;6.00;4.25;;;;;;;;3567897;39;112413;-70
2021/05/05 14:03:24;;;;;;;;;6.25;5.75;;;;;;;;3564986;39;113980;-67
2021/05/05 14:05:53;;;;;;;;;6.00;6.00;;;;;;;;3565842;39;112231;-68
2021/05/05 14:08:19;;;;;;;;;8.50;5.75;;;;;;;;3565393;39;113300;-68
2021/05/05 14:10:46;;;;;;;;;5.00;5.00;;;;;;;;3566292;39;113848;-68
2021/05/05 14:13:12;;;;;;;;;5.50;4.00;;;;;;;;3564893;39;112014;-67
2021/05/05 14:15:41;;;;;;;;;8.75;6.25;;;;;;;;3566478;39;112961;-68
2021/05/05 14:18:07;;;;;;;;;5.00;5.00;;;;;;;;3562685;39;113385;-68
2021/05/05 14:20:33;;;;;;;;;5.50;5.00;;;;;;;;3566619;39;111950;-68
2021/05/05 14:23:00;;;;;;;;;5.25;5.25;;;;;;;;3567524;39;113312;-68
2021/05/05 14:25:26;;;;;;;;;7.00;6.50;;;;;;;;3565948;39;112436;-67
2021/05/05 14:27:53;;;;;;;;;7.25;7.25;;;;;;;;3565706;39;113564;-67
2021/05/05 14:30:20;;;;;;;;;5.50;5.50;;;;;;;;3564662;39;114280;-67
2021/05/05 14:32:47;;;;;;;;;4.50;4.50;;;;;;;;3563681;39;112532;-69
2021/05/05 14:35:14;;;;;;;;;8.00;5.75;;;;;;;;3564447;39;113367;-69
2021/05/05 14:37:40;;;;;;;;;6.00;6.00;;;;;;;;3565832;39;113796;-69
2021/05/05 14:40:07;;;;;;;;;6.00;5.00;;;;;;;;3564741;39;112626;-71
2021/05/05 14:42:36;;;;;;;;;5.25;4.50;;;;;;;;3566485;39;113283;-73
2021/05/05 14:45:10;;;;;;;;;5.75;5.75;;;;;;;;3569000;39;113926;-74
2021/05/05 14:47:58;;;;;;;;;5.75;4.25;;;;;;;;3563112;39;113823;-72